createdAt,value
2019-02-16T00:00:55.181Z,13.37
2019-02-16T00:03:24.524Z,16.73
2019-02-16T00:05:53.867Z,16.87
2019-02-16T00:08:23.247Z,13.50
2019-02-16T00:10:52.831Z,16.83
2019-02-16T00:13:22.320Z,17.63
2019-02-16T00:15:51.731Z,13.87
2019-02-16T00:18:22.876Z,15.43
2019-02-16T00:20:51.970Z,18.90
2019-02-16T00:23:21.163Z,16.73
2019-02-16T00:25:50.391Z,14.97
2019-02-16T00:28:19.679Z,14.87
2019-02-16T00:30:48.958Z,18.77
2019-02-16T00:33:18.195Z,15.17
2019-02-16T00:35:47.558Z,11.43
2019-02-16T00:38:16.800Z,11.93
2019-02-16T00:40:46.132Z,16.50
2019-02-16T00:43:15.385Z,19.03
2019-02-16T00:45:45.057Z,18.20
2019-02-16T00:48:14.245Z,15.20
2019-02-16T00:50:43.522Z,15.00
2019-02-16T00:53:12.788Z,9.23
2019-02-16T00:55:42.128Z,11.53
2019-02-16T00:58:11.393Z,22.10
2019-02-16T01:00:40.630Z,16.43
2019-02-16T01:03:09.936Z,18.27
2019-02-16T01:05:39.223Z,25.13
2019-02-16T01:08:08.520Z,20.63
2019-02-16T01:10:37.762Z,17.57
2019-02-16T01:13:07.065Z,22.77
2019-02-16T01:15:36.270Z,18.47
2019-02-16T01:18:05.684Z,19.40
2019-02-16T01:20:35.032Z,26.17
2019-02-16T01:23:04.358Z,23.20
2019-02-16T01:25:33.570Z,23.87
2019-02-16T01:28:02.938Z,22.27
2019-02-16T01:30:32.163Z,21.90
2019-02-16T01:33:01.402Z,18.80
2019-02-16T01:35:30.662Z,24.23
2019-02-16T01:38:00.004Z,27.70
2019-02-16T01:40:29.377Z,19.40
2019-02-16T01:42:58.594Z,24.67
2019-02-16T01:45:27.849Z,23.20
2019-02-16T01:47:57.115Z,22.53
2019-02-16T01:50:26.327Z,21.17
2019-02-16T01:52:55.496Z,15.33
2019-02-16T01:55:24.885Z,24.13
2019-02-16T01:57:54.360Z,23.50
2019-02-16T02:00:23.676Z,26.13
2019-02-16T02:02:52.967Z,25.30
2019-02-16T02:05:22.244Z,17.63
2019-02-16T02:07:51.464Z,23.80
2019-02-16T02:10:20.731Z,24.47
2019-02-16T02:12:50.041Z,25.63
2019-02-16T02:15:19.401Z,22.83
2019-02-16T02:17:48.654Z,24.17
2019-02-16T02:20:17.936Z,23.43
2019-02-16T02:22:47.172Z,18.57
2019-02-16T02:25:16.345Z,20.27
2019-02-16T02:27:45.643Z,23.37
2019-02-16T02:30:15.099Z,21.57
2019-02-16T02:32:44.452Z,22.70
2019-02-16T02:35:13.654Z,24.67
2019-02-16T02:37:42.885Z,19.67
2019-02-16T02:40:12.083Z,14.87
2019-02-16T02:42:41.495Z,16.07
2019-02-16T02:45:10.934Z,20.63
2019-02-16T02:47:40.122Z,16.10
2019-02-16T02:50:09.337Z,17.33
2019-02-16T02:52:38.664Z,21.13
2019-02-16T02:55:08.455Z,21.90
2019-02-16T02:57:37.654Z,22.30
2019-02-16T03:00:07.751Z,21.67
2019-02-16T03:02:37.110Z,19.83
2019-02-16T03:05:07.415Z,19.00
2019-02-16T03:07:36.702Z,20.17
2019-02-16T03:10:06.020Z,20.73
2019-02-16T03:12:35.267Z,19.40
2019-02-16T03:15:05.155Z,21.73
2019-02-16T03:17:34.374Z,17.93
2019-02-16T03:20:03.745Z,18.13
2019-02-16T03:23:11.780Z,16.57
2019-02-16T03:25:41.820Z,16.70
2019-02-16T03:28:40.661Z,18.87
2019-02-16T03:31:56.766Z,20.93
2019-02-16T03:34:45.927Z,16.10
2019-02-16T03:37:49.592Z,13.67
2019-02-16T03:40:18.787Z,15.57
2019-02-16T03:42:48.133Z,16.57
2019-02-16T03:45:17.263Z,14.00
2019-02-16T03:47:46.439Z,12.70
2019-02-16T03:50:15.618Z,15.07
2019-02-16T03:52:44.898Z,12.67
2019-02-16T03:55:14.122Z,14.93
2019-02-16T03:57:43.368Z,17.67
2019-02-16T04:00:12.607Z,15.63
2019-02-16T04:02:41.773Z,15.47
2019-02-16T04:05:10.948Z,13.50
2019-02-16T04:07:40.225Z,12.93
2019-02-16T04:10:09.478Z,13.87
2019-02-16T04:12:38.832Z,13.63
2019-02-16T04:15:08.096Z,15.53
2019-02-16T04:17:37.295Z,13.17
2019-02-16T04:20:06.727Z,13.03
2019-02-16T04:22:35.914Z,11.43
2019-02-16T04:25:05.117Z,10.80
2019-02-16T04:27:34.275Z,11.40
2019-02-16T04:30:03.588Z,14.93
2019-02-16T04:32:32.785Z,16.10
2019-02-16T04:35:02.065Z,9.57
2019-02-16T04:37:31.284Z,10.50
2019-02-16T04:40:00.529Z,9.13
2019-02-16T04:42:29.680Z,9.30
2019-02-16T04:44:58.888Z,10.83
2019-02-16T04:47:28.073Z,12.20
2019-02-16T04:49:57.330Z,10.80
2019-02-16T04:52:34.355Z,9.97
2019-02-16T04:54:57.372Z,11.17
2019-02-16T04:57:26.560Z,10.47
2019-02-16T04:59:55.752Z,13.67
2019-02-16T05:02:25.019Z,13.87
2019-02-16T05:04:54.318Z,11.30
2019-02-16T05:07:23.606Z,13.57
2019-02-16T05:09:52.764Z,9.00
2019-02-16T05:12:21.914Z,10.50
2019-02-16T05:14:51.128Z,15.00
2019-02-16T05:17:20.453Z,13.53
2019-02-16T05:19:49.644Z,11.40
2019-02-16T05:22:18.806Z,11.23
2019-02-16T05:24:48.171Z,13.77
2019-02-16T05:27:17.404Z,14.90
2019-02-16T05:29:46.568Z,14.80
2019-02-16T05:32:15.719Z,10.70
2019-02-16T05:34:45.019Z,13.30
2019-02-16T05:37:14.289Z,14.03
2019-02-16T05:39:43.469Z,14.90
2019-02-16T05:42:12.631Z,14.07
2019-02-16T05:44:41.861Z,12.77
2019-02-16T05:47:11.118Z,13.83
2019-02-16T05:49:40.277Z,10.03
2019-02-16T05:52:10.629Z,10.80
2019-02-16T05:54:39.918Z,13.80
2019-02-16T05:57:09.229Z,14.03
2019-02-16T05:59:38.423Z,13.03
2019-02-16T06:02:07.677Z,13.30
2019-02-16T06:04:36.964Z,13.20
2019-02-16T06:07:06.155Z,15.13
2019-02-16T06:09:35.492Z,13.27
2019-02-16T06:12:04.732Z,12.97
2019-02-16T06:14:34.017Z,12.53
2019-02-16T06:17:03.269Z,13.40
2019-02-16T06:19:32.437Z,14.03
2019-02-16T06:22:01.642Z,13.23
2019-02-16T06:24:30.802Z,11.07
2019-02-16T06:26:59.949Z,10.50
2019-02-16T06:29:29.137Z,12.97
2019-02-16T06:31:58.380Z,11.33
2019-02-16T06:34:27.554Z,10.33
2019-02-16T06:36:56.718Z,11.13
2019-02-16T06:39:25.906Z,9.73
2019-02-16T06:41:55.078Z,12.60
2019-02-16T06:44:24.240Z,10.87
2019-02-16T06:46:53.397Z,10.30
2019-02-16T06:49:22.629Z,7.97
2019-02-16T06:51:52.172Z,10.80
2019-02-16T06:54:21.347Z,12.77
2019-02-16T06:57:02.495Z,11.97
2019-02-16T06:59:31.704Z,15.33
2019-02-16T07:02:00.942Z,14.03
2019-02-16T07:04:30.136Z,14.53
2019-02-16T07:06:59.385Z,10.47
2019-02-16T07:09:28.571Z,10.00
2019-02-16T07:11:57.745Z,11.07
2019-02-16T07:14:27.049Z,8.93
2019-02-16T07:17:06.188Z,9.07
2019-02-16T07:19:42.167Z,11.43
2019-02-16T07:22:11.538Z,11.57
2019-02-16T07:24:40.948Z,7.83
2019-02-16T07:27:10.136Z,9.23
2019-02-16T07:29:39.410Z,11.73
2019-02-16T07:32:08.665Z,8.80
2019-02-16T07:34:37.999Z,9.73
2019-02-16T07:37:07.156Z,9.57
2019-02-16T07:39:36.467Z,7.63
2019-02-16T07:42:05.642Z,11.20
2019-02-16T07:44:48.366Z,10.67
2019-02-16T07:47:30.632Z,9.87
2019-02-16T07:50:11.236Z,13.00
2019-02-16T07:52:50.074Z,8.93
2019-02-16T07:55:37.100Z,9.30
2019-02-16T07:58:14.033Z,9.23
2019-02-16T08:01:00.943Z,9.13
2019-02-16T08:03:51.925Z,10.13
2019-02-16T08:06:36.699Z,10.37
2019-02-16T08:09:16.937Z,12.53
2019-02-16T08:12:14.522Z,11.97
2019-02-16T08:15:05.861Z,11.03
2019-02-16T08:17:52.452Z,12.87
2019-02-16T08:20:49.631Z,9.63
2019-02-16T08:23:40.305Z,11.10
2019-02-16T08:26:28.529Z,9.10
2019-02-16T08:29:15.322Z,8.53
2019-02-16T08:31:51.532Z,9.30
2019-02-16T08:34:39.758Z,9.00
2019-02-16T08:37:30.798Z,11.13
2019-02-16T08:40:15.716Z,11.50
2019-02-16T08:43:03.948Z,11.93
2019-02-16T08:45:59.425Z,11.50
2019-02-16T08:48:50.753Z,9.47
2019-02-16T08:51:45.083Z,10.50
2019-02-16T08:54:40.243Z,8.80
2019-02-16T08:57:34.290Z,9.67
2019-02-16T09:00:20.931Z,12.67
2019-02-16T09:02:55.639Z,10.77
2019-02-16T09:05:43.794Z,11.37
2019-02-16T09:08:40.769Z,9.77
2019-02-16T09:11:20.434Z,10.50
2019-02-16T09:14:11.477Z,10.23
2019-02-16T09:16:58.478Z,9.57
2019-02-16T09:19:58.861Z,10.57
2019-02-16T09:22:39.700Z,12.07
2019-02-16T09:25:24.119Z,12.83
2019-02-16T09:28:18.685Z,10.23
2019-02-16T09:31:18.810Z,9.17
2019-02-16T09:34:07.209Z,9.57
2019-02-16T09:36:47.088Z,11.63
2019-02-16T09:39:34.094Z,13.37
2019-02-16T09:42:11.110Z,12.43
2019-02-16T09:45:06.089Z,12.93
2019-02-16T09:47:57.570Z,11.07
2019-02-16T09:50:54.713Z,13.23
2019-02-16T09:53:41.597Z,12.07
2019-02-16T09:56:26.337Z,13.43
2019-02-16T09:59:04.308Z,10.30
2019-02-16T10:01:44.095Z,11.37
2019-02-16T10:04:31.317Z,12.20
2019-02-16T10:07:22.535Z,11.03
2019-02-16T10:10:03.588Z,10.13
2019-02-16T10:12:47.442Z,9.93
2019-02-16T10:15:35.735Z,9.87
2019-02-16T10:18:30.037Z,12.63
2019-02-16T10:21:21.024Z,10.13
2019-02-16T10:24:17.372Z,13.17
2019-02-16T10:27:01.862Z,12.87
2019-02-16T10:29:48.705Z,10.70
2019-02-16T10:32:45.807Z,11.83
2019-02-16T10:35:36.893Z,10.13
2019-02-16T10:38:28.027Z,10.37
2019-02-16T10:41:15.075Z,10.43
2019-02-16T10:44:03.335Z,11.60
2019-02-16T10:46:50.205Z,11.43
2019-02-16T10:49:36.934Z,9.20
2019-02-16T10:52:16.238Z,8.63
2019-02-16T10:54:55.503Z,9.17
2019-02-16T10:57:46.492Z,9.10
2019-02-16T11:00:52.806Z,9.20
2019-02-16T11:03:48.475Z,9.97
2019-02-16T11:06:54.670Z,10.93
2019-02-16T11:09:39.146Z,11.03
2019-02-16T11:12:25.877Z,9.90
2019-02-16T11:15:03.863Z,10.10
2019-02-16T11:17:51.195Z,12.63
2019-02-16T11:20:29.044Z,9.80
2019-02-16T11:23:10.075Z,10.43
2019-02-16T11:25:52.559Z,10.77
2019-02-16T11:28:59.027Z,10.33
2019-02-16T11:31:56.176Z,8.33
2019-02-16T11:34:44.476Z,15.37
2019-02-16T11:37:18.621Z,11.27
2019-02-16T11:40:04.792Z,10.83
2019-02-16T11:42:55.959Z,10.80
2019-02-16T11:45:42.945Z,14.07
2019-02-16T11:48:42.991Z,12.67
2019-02-16T11:51:24.318Z,14.37
2019-02-16T11:54:10.024Z,12.97
2019-02-16T11:56:58.212Z,13.07
2019-02-16T11:59:55.521Z,11.47
2019-02-16T12:02:58.785Z,12.17
2019-02-16T12:05:42.136Z,13.70
2019-02-16T12:08:30.489Z,12.03
2019-02-16T12:11:10.121Z,13.20
2019-02-16T12:13:57.069Z,11.87
2019-02-16T12:16:43.488Z,12.77
2019-02-16T12:19:25.309Z,11.40
2019-02-16T12:22:11.944Z,12.87
2019-02-16T12:25:04.786Z,12.03
2019-02-16T12:27:38.035Z,14.67
2019-02-16T12:30:25.829Z,12.47
2019-02-16T12:33:12.897Z,12.80
2019-02-16T12:35:50.347Z,12.57
2019-02-16T12:38:38.623Z,11.50
2019-02-16T12:41:29.618Z,11.10
2019-02-16T12:44:09.533Z,10.57
2019-02-16T12:46:47.535Z,11.67
2019-02-16T12:49:31.198Z,14.93
2019-02-16T12:52:25.432Z,10.87
2019-02-16T12:55:14.671Z,12.43
2019-02-16T12:57:57.993Z,10.27
2019-02-16T13:00:44.889Z,11.60
2019-02-16T13:03:29.212Z,12.17
2019-02-16T13:06:26.492Z,11.80
2019-02-16T13:09:20.674Z,12.60
2019-02-16T13:12:11.954Z,14.37
2019-02-16T13:14:58.040Z,8.43
2019-02-16T13:17:33.850Z,11.70
2019-02-16T13:20:08.969Z,8.93
2019-02-16T13:22:55.653Z,8.93
2019-02-16T13:25:31.079Z,10.13
2019-02-16T13:28:18.206Z,10.23
2019-02-16T13:31:09.291Z,11.00
2019-02-16T13:33:59.025Z,12.63
2019-02-16T13:36:53.397Z,11.73
2019-02-16T13:39:41.859Z,8.77
2019-02-16T13:42:22.626Z,10.03
2019-02-16T13:45:03.515Z,8.83
2019-02-16T13:47:51.745Z,8.43
2019-02-16T13:50:43.016Z,10.57
2019-02-16T13:53:34.028Z,8.63
2019-02-16T13:56:34.419Z,9.83
2019-02-16T13:59:12.933Z,11.23
2019-02-16T14:02:04.235Z,10.00
2019-02-16T14:04:46.229Z,9.67
2019-02-16T14:07:46.567Z,8.60
2019-02-16T14:10:27.021Z,10.57
2019-02-16T14:13:33.361Z,12.23
2019-02-16T14:16:17.094Z,12.50
2019-02-16T14:18:46.314Z,12.83
2019-02-16T14:21:15.598Z,12.07
2019-02-16T14:23:44.862Z,8.97
2019-02-16T14:26:14.082Z,8.17
2019-02-16T14:28:43.246Z,10.00
2019-02-16T14:31:14.123Z,10.60
2019-02-16T14:33:43.324Z,8.20
2019-02-16T14:36:12.541Z,6.97
2019-02-16T14:38:46.839Z,7.57
2019-02-16T14:41:16.084Z,8.57
2019-02-16T14:43:45.333Z,9.00
2019-02-16T14:46:14.593Z,10.37
2019-02-16T14:48:43.897Z,9.80
2019-02-16T14:51:13.453Z,10.67
2019-02-16T14:53:42.768Z,7.70
2019-02-16T14:56:12.042Z,8.80
2019-02-16T14:58:41.305Z,11.77
2019-02-16T15:01:10.621Z,10.23
2019-02-16T15:03:39.924Z,9.53
2019-02-16T15:06:09.209Z,10.47
2019-02-16T15:08:38.588Z,11.77
2019-02-16T15:11:07.856Z,11.13
2019-02-16T15:13:37.100Z,9.63
2019-02-16T15:16:06.401Z,12.83
2019-02-16T15:18:35.830Z,11.23
2019-02-16T15:21:05.283Z,9.70
2019-02-16T15:23:34.617Z,11.37
2019-02-16T15:26:03.936Z,9.73
2019-02-16T15:28:33.305Z,11.83
2019-02-16T15:31:02.626Z,12.63
2019-02-16T15:33:32.073Z,10.23
2019-02-16T15:36:01.532Z,10.40
2019-02-16T15:38:30.794Z,10.20
2019-02-16T15:41:00.047Z,10.13
2019-02-16T15:43:29.371Z,12.40
2019-02-16T15:45:58.715Z,10.50
2019-02-16T15:48:28.038Z,10.23
2019-02-16T15:50:57.327Z,12.13
2019-02-16T15:53:26.672Z,13.67
2019-02-16T15:55:56.189Z,13.47
2019-02-16T15:58:25.550Z,16.30
2019-02-16T16:00:54.977Z,14.47
2019-02-16T16:03:24.337Z,12.97
2019-02-16T16:05:53.617Z,15.63
2019-02-16T16:09:00.106Z,14.97
2019-02-16T16:11:39.349Z,17.37
2019-02-16T16:14:30.501Z,13.13
2019-02-16T16:17:10.086Z,15.73
2019-02-16T16:19:57.086Z,14.90
2019-02-16T16:22:39.167Z,25.70
2019-02-16T16:25:33.234Z,21.03
2019-02-16T16:28:24.295Z,15.77
2019-02-16T16:31:11.616Z,17.30
2019-02-16T16:34:08.755Z,17.17
2019-02-16T16:37:02.909Z,17.53
2019-02-16T16:39:57.533Z,20.73
2019-02-16T16:42:57.959Z,14.93
2019-02-16T16:45:58.239Z,15.17
2019-02-16T16:48:36.489Z,13.80
2019-02-16T16:51:30.609Z,12.80
2019-02-16T16:54:31.261Z,11.50
2019-02-16T16:57:11.118Z,11.40
2019-02-16T16:59:54.413Z,11.37
2019-02-16T17:02:41.305Z,12.90
2019-02-16T17:05:32.298Z,8.97
2019-02-16T17:08:23.378Z,12.10
2019-02-16T17:11:14.642Z,10.83
2019-02-16T17:14:01.557Z,10.87
2019-02-16T17:16:39.080Z,8.67
2019-02-16T17:19:27.430Z,9.30
2019-02-16T17:22:14.169Z,10.70
2019-02-16T17:25:09.698Z,17.67
2019-02-16T17:28:04.456Z,22.50
2019-02-16T17:30:48.187Z,23.70
2019-02-16T17:33:45.591Z,21.57
2019-02-16T17:36:33.569Z,21.43
2019-02-16T17:39:09.644Z,19.73
2019-02-16T17:41:47.126Z,24.23
2019-02-16T17:44:29.001Z,15.83
2019-02-16T17:47:15.719Z,21.03
2019-02-16T17:50:03.990Z,16.10
2019-02-16T17:53:10.211Z,26.37
2019-02-16T17:55:58.452Z,24.43
2019-02-16T17:58:58.861Z,28.30
2019-02-16T18:01:38.696Z,34.57
2019-02-16T18:04:25.293Z,30.97
2019-02-16T18:07:15.326Z,20.30
2019-02-16T18:10:12.207Z,17.77
2019-02-16T18:13:12.378Z,15.77
2019-02-16T18:15:53.987Z,21.60
2019-02-16T18:18:36.627Z,19.87
2019-02-16T18:21:30.784Z,18.00
2019-02-16T18:24:28.376Z,28.00
2019-02-16T18:27:15.153Z,20.37
2019-02-16T18:30:05.027Z,21.63
2019-02-16T18:32:56.385Z,19.13
2019-02-16T18:36:02.736Z,19.73
2019-02-16T18:38:51.324Z,17.50
2019-02-16T18:41:51.734Z,13.87
2019-02-16T18:44:48.787Z,15.70
2019-02-16T18:47:48.941Z,13.40
2019-02-16T18:50:43.018Z,21.40
2019-02-16T18:53:29.929Z,15.30
2019-02-16T18:56:06.501Z,14.03
2019-02-16T18:58:54.790Z,18.80
2019-02-16T19:02:01.463Z,23.23
2019-02-16T19:04:39.983Z,17.07
2019-02-16T19:07:16.015Z,18.47
2019-02-16T19:10:07.244Z,16.00
2019-02-16T19:12:53.973Z,22.10
2019-02-16T19:15:51.073Z,17.93
2019-02-16T19:18:35.738Z,17.50
2019-02-16T19:21:22.616Z,16.03
2019-02-16T19:24:09.442Z,20.83
2019-02-16T19:26:48.900Z,14.67
2019-02-16T19:29:35.859Z,28.47
2019-02-16T19:32:16.118Z,28.27
2019-02-16T19:35:02.196Z,24.10
2019-02-16T19:37:53.349Z,27.37
2019-02-16T19:40:53.699Z,26.03
2019-02-16T19:43:44.814Z,27.23
2019-02-16T19:46:38.209Z,28.37
2019-02-16T19:49:24.805Z,18.67
2019-02-16T19:52:03.989Z,27.67
2019-02-16T19:54:49.609Z,23.23
2019-02-16T19:57:36.580Z,30.00
2019-02-16T20:00:38.332Z,23.17
2019-02-16T20:03:25.309Z,29.33
2019-02-16T20:06:22.361Z,30.00
2019-02-16T20:09:00.787Z,20.07
2019-02-16T20:11:47.842Z,30.87
2019-02-16T20:14:29.170Z,30.53
2019-02-16T20:17:17.601Z,23.47
2019-02-16T20:20:01.809Z,21.80
2019-02-16T20:22:59.004Z,27.50
2019-02-16T20:25:36.520Z,30.83
2019-02-16T20:28:24.778Z,21.13
2019-02-16T20:31:07.692Z,20.70
2019-02-16T20:33:46.510Z,20.20
2019-02-16T20:36:47.017Z,18.63
2019-02-16T20:39:48.709Z,27.93
2019-02-16T20:42:46.580Z,27.30
2019-02-16T20:45:38.161Z,27.47
2019-02-16T20:48:37.787Z,30.70
2019-02-16T20:51:26.375Z,33.90
2019-02-16T20:54:04.590Z,32.53
2019-02-16T20:56:52.863Z,32.20
2019-02-16T20:59:38.593Z,32.23
2019-02-16T21:02:40.032Z,36.10
2019-02-16T21:05:23.484Z,31.57
2019-02-16T21:08:10.421Z,25.77
2019-02-16T21:11:01.834Z,32.13
2019-02-16T21:13:56.228Z,32.43
2019-02-16T21:16:48.019Z,31.87
2019-02-16T21:19:32.779Z,31.97
2019-02-16T21:22:26.972Z,23.63
2019-02-16T21:25:11.514Z,24.93
2019-02-16T21:27:46.130Z,27.93
2019-02-16T21:30:39.973Z,33.77
2019-02-16T21:33:29.059Z,26.77
2019-02-16T21:36:15.446Z,35.10
2019-02-16T21:39:02.776Z,33.83
2019-02-16T21:41:40.922Z,30.40
2019-02-16T21:44:41.110Z,27.43
2019-02-16T21:47:35.468Z,30.50
2019-02-16T21:50:18.923Z,29.37
2019-02-16T21:53:10.064Z,28.37
2019-02-16T21:55:49.445Z,26.27
2019-02-16T21:58:32.823Z,28.10
2019-02-16T22:01:21.072Z,25.47
2019-02-16T22:04:05.612Z,23.27
2019-02-16T22:06:54.118Z,29.93
2019-02-16T22:09:51.517Z,23.50
2019-02-16T22:12:39.792Z,24.10
2019-02-16T22:15:09.739Z,27.40
2019-02-16T22:17:39.013Z,22.67
2019-02-16T22:20:10.373Z,21.97
2019-02-16T22:22:39.732Z,25.23
2019-02-16T22:25:09.187Z,21.43
2019-02-16T22:27:38.453Z,22.07
2019-02-16T22:30:08.357Z,25.20
2019-02-16T22:32:37.667Z,24.87
2019-02-16T22:35:07.133Z,20.80
2019-02-16T22:37:36.354Z,21.00
2019-02-16T22:40:05.750Z,22.67
2019-02-16T22:42:34.953Z,24.30
2019-02-16T22:45:05.031Z,29.10
2019-02-16T22:47:34.213Z,27.07
2019-02-16T22:50:03.519Z,20.57
2019-02-16T22:52:32.806Z,27.03
2019-02-16T22:55:02.465Z,23.83
2019-02-16T22:57:31.749Z,18.87
2019-02-16T23:00:01.863Z,19.47
2019-02-16T23:02:31.160Z,19.27
2019-02-16T23:05:00.420Z,24.30
2019-02-16T23:07:29.725Z,17.87
2019-02-16T23:09:58.970Z,18.93
2019-02-16T23:12:28.275Z,22.47
2019-02-16T23:14:57.604Z,19.40
2019-02-16T23:17:26.812Z,21.93
2019-02-16T23:19:56.079Z,23.40
2019-02-16T23:22:25.318Z,23.07
2019-02-16T23:24:54.586Z,20.57
2019-02-16T23:27:23.864Z,19.50
2019-02-16T23:29:53.039Z,24.47
2019-02-16T23:32:22.348Z,23.17
2019-02-16T23:34:51.547Z,17.73
2019-02-16T23:37:20.808Z,21.37
2019-02-16T23:39:50.077Z,19.97
2019-02-16T23:42:19.313Z,18.80
2019-02-16T23:44:51.008Z,19.13
2019-02-16T23:47:32.699Z,21.03
2019-02-16T23:49:59.694Z,17.47
2019-02-16T23:52:42.004Z,23.03
2019-02-16T23:55:27.994Z,18.43
2019-02-16T23:57:57.248Z,22.07
